createdAt,value
2022-11-02T00:01:03.022Z,1.65
2022-11-02T00:03:32.234Z,1.70
2022-11-02T00:06:00.197Z,1.60
2022-11-02T00:08:28.109Z,1.20
2022-11-02T00:10:55.997Z,1.48
2022-11-02T00:13:23.853Z,1.58
2022-11-02T00:15:52.256Z,2.00
2022-11-02T00:18:20.259Z,1.60
2022-11-02T00:20:49.639Z,1.80
2022-11-02T00:23:17.667Z,1.50
2022-11-02T00:25:49.083Z,2.03
2022-11-02T00:28:17.603Z,1.63
2022-11-02T00:30:46.076Z,1.50
2022-11-02T00:33:14.118Z,1.33
2022-11-02T00:35:42.621Z,1.98
2022-11-02T00:38:11.870Z,1.80
2022-11-02T00:40:39.809Z,1.58
2022-11-02T00:43:07.999Z,1.88
2022-11-02T00:45:35.851Z,2.25
2022-11-02T00:48:03.880Z,1.67
2022-11-02T00:50:32.126Z,1.65
2022-11-02T00:52:59.958Z,1.73
2022-11-02T00:55:29.336Z,1.95
2022-11-02T00:57:57.817Z,2.17
2022-11-02T01:00:26.024Z,1.90
2022-11-02T01:02:53.972Z,1.92
2022-11-02T01:05:22.215Z,1.63
2022-11-02T01:07:50.105Z,1.60
2022-11-02T01:10:18.117Z,1.67
2022-11-02T01:13:49.291Z,1.80
2022-11-02T01:15:37.962Z,1.98
2022-11-02T01:18:06.484Z,1.65
2022-11-02T01:20:34.576Z,1.50
2022-11-02T01:23:02.411Z,1.70
2022-11-02T01:25:30.266Z,1.80
2022-11-02T01:27:59.567Z,1.52
2022-11-02T01:30:27.440Z,1.55
2022-11-02T01:32:55.332Z,1.58
2022-11-02T01:35:23.166Z,1.50
2022-11-02T01:37:51.241Z,1.77
2022-11-02T01:40:19.177Z,1.73
2022-11-02T01:42:47.033Z,1.40
2022-11-02T01:45:16.719Z,1.95
2022-11-02T01:47:47.067Z,1.45
2022-11-02T01:50:21.698Z,1.42
2022-11-02T01:52:49.563Z,1.40
2022-11-02T01:55:20.904Z,1.50
2022-11-02T01:57:53.581Z,1.85
2022-11-02T02:00:23.046Z,1.65
2022-11-02T02:02:56.933Z,1.38
2022-11-02T02:05:25.848Z,1.75
2022-11-02T02:07:54.779Z,1.60
2022-11-02T02:10:22.824Z,1.58
2022-11-02T02:12:51.181Z,1.40
2022-11-02T02:15:19.273Z,1.50
2022-11-02T02:17:55.380Z,1.40
2022-11-02T02:20:41.961Z,1.80
2022-11-02T02:23:51.873Z,1.73
2022-11-02T02:26:53.314Z,1.60
2022-11-02T02:29:24.731Z,1.48
2022-11-02T02:31:57.363Z,1.70
2022-11-02T02:34:31.753Z,1.70
2022-11-02T02:37:02.857Z,1.40
2022-11-02T02:39:35.991Z,1.55
2022-11-02T02:42:12.436Z,1.70
2022-11-02T02:44:45.734Z,1.67
2022-11-02T02:47:18.311Z,1.58
2022-11-02T02:49:51.817Z,1.50
2022-11-02T02:52:21.570Z,1.80
2022-11-02T02:54:52.857Z,1.80
2022-11-02T02:57:24.401Z,1.60
2022-11-02T02:59:55.051Z,1.42
2022-11-02T03:02:26.512Z,1.80
2022-11-02T03:04:54.467Z,1.70
2022-11-02T03:07:31.014Z,1.85
2022-11-02T03:10:08.821Z,1.58
2022-11-02T03:12:44.275Z,1.80
2022-11-02T03:15:20.458Z,1.63
2022-11-02T03:18:00.956Z,1.23
2022-11-02T03:20:34.685Z,1.58
2022-11-02T03:23:13.472Z,1.65
2022-11-02T03:25:51.549Z,1.50
2022-11-02T03:28:27.887Z,1.40
2022-11-02T03:31:03.799Z,1.58
2022-11-02T03:33:36.681Z,1.30
2022-11-02T03:36:10.547Z,1.48
2022-11-02T03:38:44.990Z,1.48
2022-11-02T03:41:14.225Z,1.50
2022-11-02T03:43:43.207Z,1.48
2022-11-02T03:46:14.415Z,1.50
2022-11-02T03:48:46.081Z,1.20
2022-11-02T03:51:16.800Z,1.60
2022-11-02T03:53:49.596Z,1.33
2022-11-02T03:56:29.349Z,1.20
2022-11-02T03:58:58.115Z,1.25
2022-11-02T04:01:30.279Z,1.30
2022-11-02T04:03:58.525Z,1.25
2022-11-02T04:06:28.013Z,1.35
2022-11-02T04:08:56.018Z,1.38
2022-11-02T04:11:41.464Z,1.15
2022-11-02T04:14:28.102Z,1.25
2022-11-02T04:17:11.397Z,1.60
2022-11-02T04:19:39.414Z,1.35
2022-11-02T04:22:25.085Z,1.20
2022-11-02T04:25:10.731Z,1.40
2022-11-02T04:27:38.770Z,1.50
2022-11-02T04:30:07.715Z,1.30
2022-11-02T04:32:58.683Z,1.38
2022-11-02T04:35:26.605Z,1.13
2022-11-02T04:38:11.956Z,1.20
2022-11-02T04:40:39.933Z,1.50
2022-11-02T04:43:07.872Z,1.40
2022-11-02T04:45:35.871Z,1.30
2022-11-02T04:48:08.617Z,1.55
2022-11-02T04:50:37.001Z,1.52
2022-11-02T04:53:07.090Z,1.10
2022-11-02T04:55:35.854Z,1.67
2022-11-02T04:58:04.442Z,1.20
2022-11-02T05:00:32.709Z,1.20
2022-11-02T05:03:00.718Z,1.55
2022-11-02T05:05:30.151Z,1.40
2022-11-02T05:07:58.564Z,1.55
2022-11-02T05:10:26.827Z,1.80
2022-11-02T05:12:58.425Z,1.75
2022-11-02T05:15:26.396Z,1.40
2022-11-02T05:17:55.008Z,1.63
2022-11-02T05:20:23.043Z,1.42
2022-11-02T05:22:52.387Z,1.52
2022-11-02T05:25:20.679Z,1.40
2022-11-02T05:27:48.600Z,1.30
2022-11-02T05:30:16.895Z,1.58
2022-11-02T05:32:44.868Z,1.67
2022-11-02T05:35:12.945Z,1.40
2022-11-02T05:37:40.928Z,1.20
2022-11-02T05:40:11.615Z,1.42
2022-11-02T05:42:39.663Z,1.80
2022-11-02T05:45:08.922Z,1.50
2022-11-02T05:47:36.781Z,1.42
2022-11-02T05:50:05.410Z,1.50
2022-11-02T05:52:33.390Z,1.38
2022-11-02T05:55:01.363Z,1.83
2022-11-02T05:57:30.749Z,1.35
2022-11-02T05:59:58.782Z,1.50
2022-11-02T06:02:26.830Z,1.40
2022-11-02T06:04:55.103Z,1.60
2022-11-02T06:07:23.197Z,1.77
2022-11-02T06:09:51.546Z,1.42
2022-11-02T06:12:19.659Z,1.52
2022-11-02T06:14:49.065Z,1.70
2022-11-02T06:17:16.891Z,2.08
2022-11-02T06:19:44.917Z,1.27
2022-11-02T06:22:12.963Z,1.48
2022-11-02T06:24:40.989Z,1.40
2022-11-02T06:27:09.168Z,1.85
2022-11-02T06:29:37.159Z,1.48
2022-11-02T06:32:06.971Z,1.80
2022-11-02T06:34:35.096Z,1.35
2022-11-02T06:37:03.083Z,1.25
2022-11-02T06:39:31.328Z,1.60
2022-11-02T06:41:59.276Z,1.60
2022-11-02T06:44:27.431Z,1.55
2022-11-02T06:46:55.498Z,1.50
2022-11-02T06:49:25.574Z,1.40
2022-11-02T06:51:53.750Z,1.50
2022-11-02T06:54:21.753Z,1.30
2022-11-02T06:56:49.836Z,1.42
2022-11-02T06:59:17.906Z,1.38
2022-11-02T07:01:45.946Z,1.48
2022-11-02T07:04:14.056Z,1.50
2022-11-02T07:06:43.368Z,1.50
2022-11-02T07:09:11.574Z,1.63
2022-11-02T07:11:39.717Z,1.52
2022-11-02T07:14:07.799Z,1.67
2022-11-02T07:16:35.811Z,1.70
2022-11-02T07:19:04.248Z,2.20
2022-11-02T07:21:32.424Z,1.63
2022-11-02T07:24:01.814Z,1.50
2022-11-02T07:26:30.382Z,1.88
2022-11-02T07:28:59.811Z,1.80
2022-11-02T07:31:31.433Z,1.60
2022-11-02T07:33:59.685Z,1.90
2022-11-02T07:36:36.182Z,1.55
2022-11-02T07:39:06.902Z,1.70
2022-11-02T07:41:35.055Z,1.80
2022-11-02T07:44:03.220Z,1.77
2022-11-02T07:46:31.535Z,1.70
2022-11-02T07:49:01.930Z,1.55
2022-11-02T07:51:30.445Z,1.63
2022-11-02T07:53:58.437Z,1.50
2022-11-02T07:56:28.927Z,1.88
2022-11-02T07:58:57.115Z,1.73
2022-11-02T08:01:25.225Z,1.65
2022-11-02T08:03:54.693Z,1.52
2022-11-02T08:06:23.782Z,1.60
2022-11-02T08:08:51.955Z,1.75
2022-11-02T08:11:20.391Z,1.63
2022-11-02T08:13:49.787Z,1.45
2022-11-02T08:16:17.786Z,1.67
2022-11-02T08:18:46.055Z,1.65
2022-11-02T08:21:14.155Z,1.55
2022-11-02T08:23:44.135Z,1.60
2022-11-02T08:26:12.468Z,1.52
2022-11-02T08:28:41.327Z,1.85
2022-11-02T08:31:16.018Z,1.70
2022-11-02T08:34:05.178Z,1.65
2022-11-02T08:36:36.003Z,1.63
2022-11-02T08:39:04.385Z,1.45
2022-11-02T08:41:32.411Z,1.45
2022-11-02T08:44:00.796Z,1.70
2022-11-02T08:46:36.910Z,2.30
2022-11-02T08:49:08.370Z,1.80
2022-11-02T08:51:38.900Z,2.17
2022-11-02T08:54:07.274Z,1.80
2022-11-02T08:56:35.519Z,1.80
2022-11-02T08:59:03.542Z,1.70
2022-11-02T09:01:33.532Z,1.90
2022-11-02T09:04:04.371Z,1.77
2022-11-02T09:06:32.639Z,1.75
2022-11-02T09:09:00.635Z,1.65
2022-11-02T09:11:29.964Z,1.85
2022-11-02T09:13:58.405Z,1.77
2022-11-02T09:16:26.764Z,1.60
2022-11-02T09:18:56.580Z,1.90
2022-11-02T09:21:24.753Z,1.98
2022-11-02T09:23:52.891Z,1.70
2022-11-02T09:26:21.386Z,1.90
2022-11-02T09:28:50.681Z,2.08
2022-11-02T09:31:19.177Z,1.75
2022-11-02T09:33:47.280Z,1.70
2022-11-02T09:36:16.894Z,1.90
2022-11-02T09:38:45.096Z,2.13
2022-11-02T09:41:19.262Z,1.90
2022-11-02T09:43:58.033Z,1.90
2022-11-02T09:46:28.480Z,1.80
2022-11-02T09:48:59.904Z,2.10
2022-11-02T09:51:35.057Z,2.15
2022-11-02T09:54:13.078Z,1.88
2022-11-02T09:56:43.693Z,2.33
2022-11-02T09:59:15.650Z,2.00
2022-11-02T10:01:55.462Z,2.15
2022-11-02T10:05:09.738Z,1.70
2022-11-02T10:08:03.904Z,1.80
2022-11-02T10:10:38.500Z,2.10
2022-11-02T10:13:22.524Z,2.42
2022-11-02T10:15:55.705Z,2.10
2022-11-02T10:18:26.827Z,1.77
2022-11-02T10:20:58.662Z,2.28
2022-11-02T10:23:33.174Z,2.30
2022-11-02T10:26:03.416Z,2.78
2022-11-02T10:28:36.490Z,2.22
2022-11-02T10:31:04.661Z,2.20
2022-11-02T10:33:32.834Z,2.08
2022-11-02T10:36:18.653Z,2.05
2022-11-02T10:39:00.966Z,2.65
2022-11-02T10:41:46.363Z,2.25
2022-11-02T10:44:31.030Z,2.70
2022-11-02T10:47:08.894Z,2.42
2022-11-02T10:50:06.890Z,2.45
2022-11-02T10:52:40.083Z,2.50
2022-11-02T10:55:20.326Z,2.22
2022-11-02T10:57:49.755Z,2.45
2022-11-02T11:00:26.480Z,2.50
2022-11-02T11:03:05.777Z,2.53
2022-11-02T11:05:34.716Z,2.55
2022-11-02T11:08:03.837Z,2.70
2022-11-02T11:10:39.096Z,2.40
2022-11-02T11:15:56.755Z,2.30
2022-11-02T11:21:14.345Z,2.25
2022-11-02T11:23:42.850Z,2.30
2022-11-02T11:26:28.569Z,2.22
2022-11-02T11:28:58.114Z,2.30
2022-11-02T11:31:27.053Z,2.15
2022-11-02T11:33:58.535Z,2.20
2022-11-02T11:36:30.402Z,2.40
2022-11-02T11:39:00.370Z,2.40
2022-11-02T11:41:30.638Z,2.10
2022-11-02T11:43:59.078Z,2.45
2022-11-02T11:46:41.281Z,2.03
2022-11-02T11:49:31.005Z,2.20
2022-11-02T11:52:05.415Z,2.00
2022-11-02T11:54:55.326Z,2.35
2022-11-02T11:57:29.471Z,1.98
2022-11-02T12:00:01.757Z,1.95
2022-11-02T12:02:31.754Z,2.00
2022-11-02T12:05:12.724Z,1.90
2022-11-02T12:08:01.481Z,2.08
2022-11-02T12:10:56.679Z,2.38
2022-11-02T12:13:44.606Z,2.17
2022-11-02T12:16:20.913Z,2.33
2022-11-02T12:19:01.616Z,2.00
2022-11-02T12:21:52.280Z,2.10
2022-11-02T12:24:45.158Z,2.00
2022-11-02T12:27:29.195Z,2.00
2022-11-02T12:30:22.981Z,2.00
2022-11-02T12:33:04.994Z,2.00
2022-11-02T12:35:57.268Z,2.20
2022-11-02T12:38:50.281Z,2.40
2022-11-02T12:41:39.790Z,1.88
2022-11-02T12:44:22.324Z,1.98
2022-11-02T12:46:58.696Z,1.90
2022-11-02T12:49:41.600Z,1.95
2022-11-02T12:52:24.726Z,2.03
2022-11-02T12:54:56.953Z,2.15
2022-11-02T12:57:28.426Z,2.10
2022-11-02T13:00:01.187Z,1.92
2022-11-02T13:02:40.761Z,1.85
2022-11-02T13:05:13.333Z,1.70
2022-11-02T13:07:46.009Z,1.92
2022-11-02T13:10:19.029Z,1.90
2022-11-02T13:12:49.481Z,1.70
2022-11-02T13:15:23.765Z,2.03
2022-11-02T13:17:56.487Z,2.05
2022-11-02T13:20:28.018Z,1.88
2022-11-02T13:23:03.126Z,2.10
2022-11-02T13:25:40.428Z,1.70
2022-11-02T13:28:18.337Z,1.88
2022-11-02T13:30:59.951Z,1.73
2022-11-02T13:33:38.449Z,2.03
2022-11-02T13:36:12.940Z,2.00
2022-11-02T13:38:46.599Z,1.90
2022-11-02T13:41:39.503Z,2.15
2022-11-02T13:44:46.685Z,1.70
2022-11-02T13:47:43.279Z,1.95
2022-11-02T13:50:25.075Z,2.08
2022-11-02T13:53:00.277Z,2.15
2022-11-02T13:55:44.538Z,2.10
2022-11-02T13:58:25.343Z,1.80
2022-11-02T14:00:55.264Z,1.88
2022-11-02T14:03:27.308Z,2.17
2022-11-02T14:05:58.942Z,2.22
2022-11-02T14:08:38.752Z,1.90
2022-11-02T14:11:42.765Z,2.22
2022-11-02T14:14:23.305Z,2.00
2022-11-02T14:17:22.396Z,1.92
2022-11-02T14:19:56.184Z,1.70
2022-11-02T14:22:25.736Z,2.17
2022-11-02T14:25:15.476Z,2.40
2022-11-02T14:27:44.335Z,2.00
2022-11-02T14:30:44.118Z,2.38
2022-11-02T14:33:36.242Z,1.70
2022-11-02T14:36:07.684Z,1.83
2022-11-02T14:38:59.181Z,1.90
2022-11-02T14:41:47.276Z,1.90
2022-11-02T14:44:59.005Z,2.40
2022-11-02T14:47:32.243Z,2.10
2022-11-02T14:50:07.533Z,1.90
2022-11-02T14:52:37.069Z,2.30
2022-11-02T14:55:10.694Z,2.00
2022-11-02T14:57:43.812Z,2.13
2022-11-02T15:00:27.083Z,1.80
2022-11-02T15:03:21.637Z,2.30
2022-11-02T15:05:50.204Z,2.03
2022-11-02T15:08:26.352Z,2.20
2022-11-02T15:10:57.394Z,2.22
2022-11-02T15:13:49.272Z,2.30
2022-11-02T15:16:25.061Z,2.20
2022-11-02T15:19:17.704Z,2.17
2022-11-02T15:21:46.614Z,2.00
2022-11-02T15:24:25.906Z,2.15
2022-11-02T15:27:00.207Z,2.05
2022-11-02T15:29:37.181Z,2.58
2022-11-02T15:32:09.935Z,1.90
2022-11-02T15:34:46.456Z,1.95
2022-11-02T15:37:19.349Z,2.10
2022-11-02T15:39:51.401Z,2.20
2022-11-02T15:42:31.122Z,1.80
2022-11-02T15:48:24.999Z,1.88
2022-11-02T15:51:00.095Z,2.40
2022-11-02T15:53:51.199Z,2.05
2022-11-02T15:56:40.180Z,2.20
2022-11-02T15:59:40.787Z,2.05
2022-11-02T16:02:26.468Z,2.47
2022-11-02T16:04:57.902Z,1.80
2022-11-02T16:07:33.330Z,2.22
2022-11-02T16:10:25.723Z,2.40
2022-11-02T16:13:13.617Z,2.60
2022-11-02T16:15:43.738Z,2.67
2022-11-02T16:18:29.324Z,2.17
2022-11-02T16:21:01.923Z,2.13
2022-11-02T16:23:31.601Z,2.50
2022-11-02T16:26:02.182Z,2.30
2022-11-02T16:28:31.513Z,2.40
2022-11-02T16:31:13.500Z,2.30
2022-11-02T16:33:46.266Z,2.60
2022-11-02T16:36:17.163Z,2.70
2022-11-02T16:38:52.634Z,3.10
2022-11-02T16:41:21.241Z,2.85
2022-11-02T16:43:51.100Z,3.60
2022-11-02T16:46:30.785Z,3.20
2022-11-02T16:49:15.025Z,3.90
2022-11-02T16:51:50.891Z,3.92
2022-11-02T16:54:39.706Z,4.30
2022-11-02T16:57:13.555Z,4.28
2022-11-02T16:59:50.652Z,4.38
2022-11-02T17:02:24.875Z,5.47
2022-11-02T17:05:02.463Z,5.03
2022-11-02T17:07:37.190Z,5.82
2022-11-02T17:10:07.508Z,5.88
2022-11-02T17:12:38.547Z,5.55
2022-11-02T17:15:17.382Z,5.57
2022-11-02T17:17:47.466Z,5.20
2022-11-02T17:20:22.278Z,5.65
2022-11-02T17:22:56.466Z,5.55
2022-11-02T17:25:27.771Z,6.40
2022-11-02T17:27:58.726Z,5.75
2022-11-02T17:30:44.186Z,5.28
2022-11-02T17:33:26.028Z,5.15
2022-11-02T17:35:56.613Z,5.95
2022-11-02T17:38:27.643Z,5.30
2022-11-02T17:40:56.486Z,5.22
2022-11-02T17:43:27.041Z,5.80
2022-11-02T17:45:56.701Z,5.72
2022-11-02T17:48:29.031Z,5.47
2022-11-02T17:51:08.380Z,5.35
2022-11-02T17:53:37.214Z,5.38
2022-11-02T17:56:22.721Z,4.90
2022-11-02T17:58:53.478Z,5.07
2022-11-02T18:01:23.416Z,4.80
2022-11-02T18:03:58.046Z,5.07
2022-11-02T18:06:27.987Z,4.85
2022-11-02T18:09:24.367Z,4.70
2022-11-02T18:12:03.092Z,5.05
2022-11-02T18:14:34.749Z,4.57
2022-11-02T18:17:11.131Z,4.65
2022-11-02T18:19:42.175Z,5.13
2022-11-02T18:22:17.935Z,4.75
2022-11-02T18:24:52.947Z,4.63
2022-11-02T18:27:32.340Z,4.32
2022-11-02T18:30:31.877Z,4.40
2022-11-02T18:33:21.001Z,4.30
2022-11-02T18:36:11.641Z,4.45
2022-11-02T18:38:43.712Z,4.20
2022-11-02T18:41:39.313Z,4.30
2022-11-02T18:44:21.002Z,4.57
2022-11-02T18:46:49.659Z,4.47
2022-11-02T18:49:19.555Z,3.97
2022-11-02T18:52:33.435Z,4.10
2022-11-02T18:55:11.312Z,4.28
2022-11-02T18:58:32.773Z,4.32
2022-11-02T19:01:41.885Z,4.07
2022-11-02T19:04:32.498Z,4.00
2022-11-02T19:07:20.279Z,3.88
2022-11-02T19:09:52.580Z,3.80
2022-11-02T19:15:42.333Z,3.70
2022-11-02T19:18:45.654Z,3.78
2022-11-02T19:21:14.807Z,3.80
2022-11-02T19:23:45.533Z,4.18
2022-11-02T19:26:28.581Z,4.47
2022-11-02T19:29:03.072Z,3.92
2022-11-02T19:31:40.440Z,4.30
2022-11-02T19:34:28.871Z,4.30
2022-11-02T19:37:03.112Z,4.30
2022-11-02T19:39:44.961Z,3.90
2022-11-02T19:42:29.113Z,3.97
2022-11-02T19:46:33.377Z,4.63
2022-11-02T19:48:16.419Z,3.92
2022-11-02T19:51:19.253Z,4.20
2022-11-02T19:54:03.019Z,4.07
2022-11-02T19:56:36.042Z,4.47
2022-11-02T19:59:07.405Z,3.83
2022-11-02T20:02:13.450Z,4.40
2022-11-02T20:04:45.894Z,3.78
2022-11-02T20:07:15.840Z,4.05
2022-11-02T20:09:45.026Z,4.38
2022-11-02T20:12:13.169Z,4.13
2022-11-02T20:14:42.863Z,4.53
2022-11-02T20:17:30.834Z,4.00
2022-11-02T20:19:59.094Z,4.28
2022-11-02T20:22:27.090Z,4.70
2022-11-02T20:24:55.468Z,4.70
2022-11-02T20:27:23.563Z,4.75
2022-11-02T20:29:54.077Z,4.70
2022-11-02T20:32:23.648Z,5.20
2022-11-02T20:34:51.674Z,4.80
2022-11-02T20:37:19.984Z,4.68
2022-11-02T20:39:48.115Z,5.00
2022-11-02T20:42:16.114Z,4.72
2022-11-02T20:44:49.173Z,4.80
2022-11-02T20:47:18.652Z,4.60
2022-11-02T20:49:51.154Z,4.55
2022-11-02T20:52:22.601Z,5.13
2022-11-02T20:54:50.725Z,4.53
2022-11-02T20:57:19.029Z,4.72
2022-11-02T20:59:47.026Z,4.28
2022-11-02T21:02:15.274Z,4.30
2022-11-02T21:04:45.553Z,4.60
2022-11-02T21:07:13.570Z,4.15
2022-11-02T21:09:42.890Z,4.35
2022-11-02T21:12:32.893Z,4.00
2022-11-02T21:15:01.086Z,4.05
2022-11-02T21:17:29.507Z,4.10
2022-11-02T21:20:14.252Z,4.13
2022-11-02T21:22:50.039Z,4.00
2022-11-02T21:25:18.530Z,3.35
2022-11-02T21:27:50.324Z,3.67
2022-11-02T21:30:18.554Z,4.07
2022-11-02T21:32:46.723Z,4.10
2022-11-02T21:35:16.761Z,4.18
2022-11-02T21:37:45.122Z,4.30
2022-11-02T21:40:13.921Z,4.18
2022-11-02T21:42:42.210Z,3.80
2022-11-02T21:45:17.636Z,4.18
2022-11-02T21:47:46.432Z,3.45
2022-11-02T21:50:16.143Z,3.85
2022-11-02T21:52:45.316Z,3.83
2022-11-02T21:55:13.491Z,4.00
2022-11-02T21:57:41.568Z,3.70
2022-11-02T22:00:10.909Z,3.50
2022-11-02T22:02:37.976Z,3.60
2022-11-02T22:05:06.738Z,3.70
2022-11-02T22:07:56.126Z,3.92
2022-11-02T22:10:24.375Z,3.33
2022-11-02T22:13:09.868Z,3.55
2022-11-02T22:15:38.576Z,3.65
2022-11-02T22:18:06.824Z,3.50
2022-11-02T22:20:34.790Z,3.20
2022-11-02T22:23:04.895Z,3.40
2022-11-02T22:25:33.224Z,3.25
2022-11-02T22:28:01.282Z,3.10
2022-11-02T22:30:29.921Z,3.28
2022-11-02T22:32:57.939Z,3.35
2022-11-02T22:35:25.967Z,3.45
2022-11-02T22:38:11.288Z,3.42
2022-11-02T22:40:40.866Z,3.88
2022-11-02T22:43:12.027Z,3.25
2022-11-02T22:45:40.038Z,3.15
2022-11-02T22:48:08.205Z,3.40
2022-11-02T22:50:36.212Z,3.20
2022-11-02T22:53:04.751Z,3.55
2022-11-02T22:55:33.514Z,3.13
2022-11-02T22:58:02.907Z,3.08
2022-11-02T23:00:31.004Z,3.30
2022-11-02T23:02:59.222Z,2.92
2022-11-02T23:05:27.390Z,3.45
2022-11-02T23:07:57.677Z,3.13
2022-11-02T23:10:43.186Z,2.83
2022-11-02T23:13:12.833Z,3.20
2022-11-02T23:15:40.796Z,2.88
2022-11-02T23:18:09.375Z,3.30
2022-11-02T23:20:36.672Z,2.75
2022-11-02T23:23:22.261Z,2.60
2022-11-02T23:25:58.293Z,2.95
2022-11-02T23:28:45.159Z,2.97
2022-11-02T23:31:30.714Z,2.85
2022-11-02T23:33:58.755Z,2.67
2022-11-02T23:36:25.699Z,2.65
2022-11-02T23:39:11.427Z,2.90
2022-11-02T23:41:39.554Z,3.08
2022-11-02T23:44:15.789Z,2.80
2022-11-02T23:46:44.843Z,2.28
2022-11-02T23:49:13.566Z,2.80
2022-11-02T23:51:59.326Z,2.70
2022-11-02T23:54:44.868Z,2.85
2022-11-02T23:57:14.087Z,3.00
2022-11-02T23:59:43.534Z,3.05
